createdAt,value
2017-03-22T00:00:44.832Z,16.57
2017-03-22T00:01:55.199Z,16.54
2017-03-22T00:03:05.258Z,16.55
2017-03-22T00:04:15.301Z,16.45
2017-03-22T00:05:25.634Z,16.4
2017-03-22T00:06:36.041Z,16.4
2017-03-22T00:07:46.399Z,16.44
2017-03-22T00:08:56.438Z,16.55
2017-03-22T00:10:06.468Z,16.55
2017-03-22T00:11:16.861Z,16.54
2017-03-22T00:12:26.899Z,16.52
2017-03-22T00:13:36.943Z,16.49
2017-03-22T00:14:47.293Z,16.54
2017-03-22T00:15:57.369Z,16.49
2017-03-22T00:17:07.708Z,16.42
2017-03-22T00:18:18.059Z,16.4
2017-03-22T00:19:28.085Z,16.48
2017-03-22T00:20:38.116Z,16.4
2017-03-22T00:21:48.162Z,16.52
2017-03-22T00:22:58.501Z,16.45
2017-03-22T00:24:08.858Z,16.45
2017-03-22T00:25:18.583Z,16.34
2017-03-22T00:26:28.607Z,16.37
2017-03-22T00:27:38.965Z,16.36
2017-03-22T00:28:49.310Z,16.33
2017-03-22T00:29:59.667Z,16.4
2017-03-22T00:31:09.390Z,16.34
2017-03-22T00:32:19.435Z,16.33
2017-03-22T00:33:29.788Z,16.39
2017-03-22T00:34:40.123Z,16.37
2017-03-22T00:35:50.478Z,16.42
2017-03-22T00:37:00.842Z,16.32
2017-03-22T00:38:10.871Z,16.27
2017-03-22T00:39:20.279Z,16.3
2017-03-22T00:40:30.657Z,16.22
2017-03-22T00:41:41.009Z,16.17
2017-03-22T00:42:51.359Z,16.25
2017-03-22T00:44:01.387Z,16.17
2017-03-22T00:45:11.739Z,16.13
2017-03-22T00:46:22.084Z,16.18
2017-03-22T00:47:32.417Z,16.14
2017-03-22T00:48:42.444Z,16.14
2017-03-22T00:49:52.803Z,16.04
2017-03-22T00:51:03.166Z,15.95
2017-03-22T00:52:13.516Z,15.91
2017-03-22T00:53:23.865Z,15.95
2017-03-22T00:54:34.207Z,15.95
2017-03-22T00:55:43.629Z,15.91
2017-03-22T00:56:53.644Z,15.86
2017-03-22T00:58:03.682Z,15.88
2017-03-22T00:59:14.021Z,15.8
2017-03-22T01:00:24.385Z,15.81
2017-03-22T01:01:34.742Z,15.8
2017-03-22T01:02:45.067Z,15.75
2017-03-22T01:03:55.425Z,15.8
2017-03-22T01:05:05.766Z,15.7
2017-03-22T01:06:16.108Z,15.63
2017-03-22T01:07:26.143Z,15.74
2017-03-22T01:08:36.188Z,15.65
2017-03-22T01:09:46.555Z,15.63
2017-03-22T01:10:56.891Z,15.59
2017-03-22T01:12:06.926Z,15.65
2017-03-22T01:13:17.283Z,15.62
2017-03-22T01:14:27.337Z,15.6
2017-03-22T01:15:37.372Z,15.62
2017-03-22T01:16:47.719Z,15.63
2017-03-22T01:17:57.799Z,15.55
2017-03-22T01:19:07.818Z,15.6
2017-03-22T01:20:17.848Z,15.51
2017-03-22T01:21:28.186Z,15.55
2017-03-22T01:22:38.539Z,15.53
2017-03-22T01:23:48.876Z,15.53
2017-03-22T01:24:59.226Z,15.55
2017-03-22T01:26:09.576Z,15.56
2017-03-22T01:27:19.606Z,15.47
2017-03-22T01:28:29.957Z,15.59
2017-03-22T01:29:40.029Z,15.52
2017-03-22T01:30:50.057Z,15.55
2017-03-22T01:32:00.400Z,15.44
2017-03-22T01:33:10.758Z,15.58
2017-03-22T01:34:20.804Z,15.59
2017-03-22T01:35:31.141Z,15.59
2017-03-22T01:36:41.488Z,15.67
2017-03-22T01:37:51.824Z,15.59
2017-03-22T01:39:02.187Z,15.68
2017-03-22T01:40:12.547Z,15.65
2017-03-22T01:41:22.266Z,15.65
2017-03-22T01:42:32.577Z,15.65
2017-03-22T01:43:42.310Z,15.74
2017-03-22T01:44:52.654Z,15.68
2017-03-22T01:46:02.685Z,15.59
2017-03-22T01:47:13.032Z,15.6
2017-03-22T01:48:23.139Z,15.65
2017-03-22T01:49:33.177Z,15.68
2017-03-22T01:50:43.221Z,15.65
2017-03-22T01:51:52.944Z,15.55
2017-03-22T01:53:02.980Z,15.6
2017-03-22T01:54:13.334Z,15.62
2017-03-22T01:55:23.380Z,15.6
2017-03-22T01:56:33.099Z,15.67
2017-03-22T01:57:43.434Z,15.65
2017-03-22T01:58:53.482Z,15.63
2017-03-22T02:00:03.873Z,15.65
2017-03-22T02:01:14.211Z,15.62
2017-03-22T02:02:24.231Z,15.62
2017-03-22T02:03:34.578Z,15.63
2017-03-22T02:04:44.608Z,15.65
2017-03-22T02:05:54.639Z,15.7
2017-03-22T02:07:04.988Z,15.68
2017-03-22T02:08:15.380Z,15.78
2017-03-22T02:09:25.731Z,15.74
2017-03-22T02:10:36.063Z,15.75
2017-03-22T02:11:46.417Z,15.73
2017-03-22T02:12:56.766Z,15.75
2017-03-22T02:14:06.798Z,15.78
2017-03-22T02:15:17.147Z,15.83
2017-03-22T02:16:27.485Z,15.75
2017-03-22T02:17:37.822Z,15.81
2017-03-22T02:18:47.864Z,15.75
2017-03-22T02:19:58.202Z,15.84
2017-03-22T02:21:08.550Z,15.83
2017-03-22T02:22:18.908Z,15.89
2017-03-22T02:23:29.248Z,15.78
2017-03-22T02:24:39.590Z,15.77
2017-03-22T02:25:49.930Z,15.83
2017-03-22T02:26:59.960Z,15.8
2017-03-22T02:28:10.296Z,15.8
2017-03-22T02:29:20.648Z,15.8
2017-03-22T02:30:30.690Z,15.74
2017-03-22T02:31:40.402Z,15.84
2017-03-22T02:32:50.738Z,15.83
2017-03-22T02:34:01.086Z,15.83
2017-03-22T02:35:11.438Z,15.83
2017-03-22T02:36:21.479Z,15.83
2017-03-22T02:37:31.822Z,15.86
2017-03-22T02:38:42.202Z,15.78
2017-03-22T02:39:52.245Z,15.84
2017-03-22T02:41:02.590Z,15.75
2017-03-22T02:42:12.613Z,15.78
2017-03-22T02:43:22.960Z,15.75
2017-03-22T02:44:32.671Z,15.77
2017-03-22T02:45:43.003Z,15.78
2017-03-22T02:46:53.341Z,15.77
2017-03-22T02:48:03.377Z,15.84
2017-03-22T02:49:13.715Z,15.8
2017-03-22T02:50:24.066Z,15.77
2017-03-22T02:51:34.411Z,15.77
2017-03-22T02:52:44.758Z,15.75
2017-03-22T02:53:55.111Z,15.8
2017-03-22T02:55:05.458Z,15.86
2017-03-22T02:56:15.165Z,15.8
2017-03-22T02:57:25.493Z,15.73
2017-03-22T02:58:35.832Z,15.74
2017-03-22T02:59:46.178Z,15.73
2017-03-22T03:00:56.516Z,15.75
2017-03-22T03:32:14.131Z,12.81
2017-03-22T03:33:24.470Z,12.7
2017-03-22T03:34:34.802Z,12.84
2017-03-22T03:35:45.146Z,12.88
2017-03-22T03:36:55.475Z,12.83
2017-03-22T03:38:05.494Z,12.98
2017-03-22T03:39:15.824Z,13.09
2017-03-22T03:40:25.852Z,13.24
2017-03-22T03:41:36.191Z,13.37
2017-03-22T03:42:46.217Z,13.42
2017-03-22T03:43:56.246Z,13.57
2017-03-22T03:45:06.618Z,13.68
2017-03-22T03:46:16.946Z,13.84
2017-03-22T03:47:27.285Z,13.9
2017-03-22T03:48:37.707Z,14.08
2017-03-22T03:49:47.759Z,14.19
2017-03-22T03:50:58.120Z,14.26
2017-03-22T03:52:08.484Z,14.34
2017-03-22T03:53:18.514Z,14.41
2017-03-22T03:54:28.862Z,14.44
2017-03-22T03:55:39.223Z,14.53
2017-03-22T03:56:49.573Z,14.57
2017-03-22T03:57:59.935Z,14.57
2017-03-22T03:59:09.970Z,14.69
2017-03-22T04:00:20.016Z,14.69
2017-03-22T04:01:30.049Z,14.7
2017-03-22T04:02:40.410Z,14.7
2017-03-22T04:03:50.441Z,14.77
2017-03-22T04:05:00.781Z,14.75
2017-03-22T04:06:11.135Z,14.74
2017-03-22T04:07:21.527Z,14.82
2017-03-22T04:08:31.879Z,14.74
2017-03-22T04:09:42.227Z,14.85
2017-03-22T04:10:52.557Z,14.79
2017-03-22T04:12:02.899Z,14.82
2017-03-22T04:13:12.926Z,14.82
2017-03-22T04:14:22.666Z,14.8
2017-03-22T04:15:32.704Z,14.79
2017-03-22T04:16:43.039Z,14.79
2017-03-22T04:17:53.386Z,14.9
2017-03-22T04:19:03.426Z,14.86
2017-03-22T04:20:13.752Z,14.82
2017-03-22T04:21:24.089Z,14.82
2017-03-22T04:22:34.123Z,14.87
2017-03-22T04:23:44.472Z,14.77
2017-03-22T04:24:54.849Z,14.74
2017-03-22T04:26:04.897Z,14.75
2017-03-22T04:27:14.945Z,14.75
2017-03-22T04:28:25.279Z,14.74
2017-03-22T04:29:35.629Z,14.77
2017-03-22T04:30:45.965Z,14.79
2017-03-22T04:31:56.310Z,14.77
2017-03-22T04:33:06.667Z,14.77
2017-03-22T04:34:17.004Z,14.83
2017-03-22T04:35:27.343Z,14.79
2017-03-22T04:36:37.669Z,14.85
2017-03-22T04:37:48.012Z,14.85
2017-03-22T04:38:58.355Z,14.82
2017-03-22T04:40:08.690Z,14.7
2017-03-22T04:41:19.032Z,14.7
2017-03-22T04:42:29.371Z,14.69
2017-03-22T04:43:39.704Z,14.63
2017-03-22T04:44:50.027Z,14.63
2017-03-22T04:46:00.370Z,14.66
2017-03-22T04:47:10.721Z,14.69
2017-03-22T04:48:21.072Z,14.66
2017-03-22T04:49:31.409Z,14.66
2017-03-22T04:50:41.763Z,14.61
2017-03-22T04:51:51.793Z,14.6
2017-03-22T04:53:02.135Z,14.74
2017-03-22T04:54:12.171Z,14.67
2017-03-22T04:55:22.535Z,14.74
2017-03-22T04:56:32.864Z,14.67
2017-03-22T04:57:43.190Z,14.66
2017-03-22T04:58:53.548Z,14.67
2017-03-22T05:00:03.898Z,14.63
2017-03-22T05:01:14.235Z,14.63
2017-03-22T05:02:24.254Z,14.64
2017-03-22T05:03:34.280Z,14.67
2017-03-22T05:04:44.633Z,14.67
2017-03-22T05:05:54.969Z,14.69
2017-03-22T05:07:05.312Z,14.66
2017-03-22T05:08:15.654Z,14.71
2017-03-22T05:09:25.678Z,14.77
2017-03-22T05:10:35.710Z,14.75
2017-03-22T05:11:46.075Z,14.69
2017-03-22T05:12:56.412Z,14.63
2017-03-22T05:14:06.463Z,14.63
2017-03-22T05:15:16.494Z,14.64
2017-03-22T05:16:26.522Z,14.7
2017-03-22T05:17:36.889Z,14.61
2017-03-22T05:18:47.218Z,14.71
2017-03-22T05:19:57.258Z,14.67
2017-03-22T05:21:07.598Z,14.64
2017-03-22T05:22:17.618Z,14.66
2017-03-22T05:23:27.659Z,14.63
2017-03-22T05:24:38.019Z,14.64
2017-03-22T05:25:48.366Z,14.66
2017-03-22T05:26:58.702Z,14.66
2017-03-22T05:28:09.067Z,14.67
2017-03-22T05:29:19.410Z,14.7
2017-03-22T05:30:29.140Z,14.7
2017-03-22T05:31:38.852Z,14.69
2017-03-22T05:32:49.196Z,14.71
2017-03-22T05:33:59.566Z,14.71
2017-03-22T05:35:09.908Z,14.71
2017-03-22T05:36:19.933Z,14.67
2017-03-22T05:37:29.956Z,14.67
2017-03-22T05:38:40.295Z,14.67
2017-03-22T05:39:50.646Z,14.7
2017-03-22T05:41:00.990Z,14.67
2017-03-22T05:42:11.017Z,14.66
2017-03-22T05:43:21.365Z,14.7
2017-03-22T05:44:31.711Z,14.7
2017-03-22T05:45:42.042Z,14.71
2017-03-22T05:46:52.387Z,14.79
2017-03-22T05:48:02.722Z,14.71
2017-03-22T05:49:13.072Z,14.7
2017-03-22T05:50:23.424Z,14.77
2017-03-22T05:51:33.161Z,14.82
2017-03-22T05:52:43.506Z,14.83
2017-03-22T05:53:53.536Z,14.87
2017-03-22T05:55:03.891Z,14.93
2017-03-22T05:56:14.247Z,14.86
2017-03-22T05:57:24.572Z,14.9
2017-03-22T05:58:34.917Z,14.87
2017-03-22T05:59:45.257Z,14.86
2017-03-22T06:00:55.301Z,14.89
2017-03-22T06:02:05.640Z,14.93
2017-03-22T06:03:15.999Z,14.89
2017-03-22T06:04:26.355Z,14.86
2017-03-22T06:05:36.696Z,14.98
2017-03-22T06:06:46.717Z,14.98
2017-03-22T06:07:57.063Z,15.05
2017-03-22T06:09:07.430Z,15.07
2017-03-22T06:10:17.767Z,15.1
2017-03-22T06:11:28.096Z,15.19
2017-03-22T06:12:38.421Z,15.1
2017-03-22T06:13:48.800Z,15.15
2017-03-22T06:14:58.827Z,15.16
2017-03-22T06:16:08.837Z,15.16
2017-03-22T06:17:18.549Z,15.15
2017-03-22T06:18:28.898Z,15.07
2017-03-22T06:19:39.222Z,15.1
2017-03-22T06:20:49.555Z,15.25
2017-03-22T06:21:59.901Z,15.18
2017-03-22T06:23:09.934Z,15.27
2017-03-22T06:24:20.284Z,15.22
2017-03-22T06:25:30.314Z,15.19
2017-03-22T06:26:40.662Z,15.22
2017-03-22T06:27:50.991Z,15.25
2017-03-22T06:29:01.332Z,15.33
2017-03-22T06:30:11.706Z,15.27
2017-03-22T06:31:21.729Z,15.25
2017-03-22T06:32:32.067Z,15.26
2017-03-22T06:33:42.417Z,15.26
2017-03-22T06:34:52.764Z,15.33
2017-03-22T06:36:02.789Z,15.2
2017-03-22T06:37:12.825Z,15.27
2017-03-22T06:38:22.850Z,15.26
2017-03-22T06:39:32.874Z,15.34
2017-03-22T06:40:42.888Z,15.38
2017-03-22T06:41:53.214Z,15.37
2017-03-22T06:43:03.261Z,15.31
2017-03-22T06:44:13.619Z,15.38
2017-03-22T06:45:23.661Z,15.34
2017-03-22T06:46:33.994Z,15.35
2017-03-22T06:47:44.019Z,15.4
2017-03-22T06:48:54.369Z,15.33
2017-03-22T06:50:04.409Z,15.37
2017-03-22T06:51:14.752Z,15.35
2017-03-22T06:52:25.086Z,15.44
2017-03-22T06:53:35.122Z,15.4
2017-03-22T06:54:45.470Z,15.3
2017-03-22T06:55:55.492Z,15.31
2017-03-22T06:57:05.862Z,15.25
2017-03-22T06:58:16.244Z,15.25
2017-03-22T06:59:26.590Z,15.33
2017-03-22T07:00:36.934Z,15.3
2017-03-22T07:01:47.295Z,15.31
2017-03-22T07:02:57.060Z,15.37
2017-03-22T07:04:07.409Z,15.31
2017-03-22T07:05:17.755Z,15.4
2017-03-22T07:06:27.781Z,15.38
2017-03-22T07:07:38.122Z,15.45
2017-03-22T07:08:48.459Z,15.51
2017-03-22T07:09:58.813Z,15.6
2017-03-22T07:11:08.842Z,15.78
2017-03-22T07:12:19.175Z,15.78
2017-03-22T07:13:29.212Z,15.75
2017-03-22T07:14:39.543Z,15.91
2017-03-22T07:15:49.579Z,15.95
2017-03-22T07:16:59.916Z,16.07
2017-03-22T07:18:10.256Z,16.25
2017-03-22T07:19:19.985Z,16.27
2017-03-22T07:20:30.329Z,16.3
2017-03-22T07:21:40.348Z,16.22
2017-03-22T07:22:50.382Z,16.21
2017-03-22T07:24:00.731Z,16.25
2017-03-22T07:25:11.066Z,16.3
2017-03-22T07:26:21.414Z,16.27
2017-03-22T07:27:31.741Z,16.44
2017-03-22T07:28:41.763Z,16.37
2017-03-22T07:29:52.133Z,16.59
2017-03-22T07:31:02.524Z,16.67
2017-03-22T07:32:12.890Z,16.72
2017-03-22T07:33:22.944Z,16.52
2017-03-22T07:34:33.287Z,16.62
2017-03-22T07:35:43.648Z,16.47
2017-03-22T07:36:53.684Z,16.39
2017-03-22T07:38:03.746Z,16.39
2017-03-22T07:39:14.120Z,16.39
2017-03-22T07:40:24.544Z,16.39
2017-03-22T07:41:34.874Z,16.37
2017-03-22T07:42:45.239Z,16.44
2017-03-22T07:43:55.624Z,16.48
2017-03-22T07:45:05.685Z,16.57
2017-03-22T07:46:16.028Z,16.47
2017-03-22T07:47:26.370Z,16.47
2017-03-22T07:48:36.727Z,16.44
2017-03-22T07:49:46.776Z,16.44
2017-03-22T07:50:57.115Z,16.47
2017-03-22T07:52:07.456Z,16.47
2017-03-22T07:53:17.810Z,16.34
2017-03-22T07:54:27.844Z,16.37
2017-03-22T07:55:37.568Z,16.39
2017-03-22T07:56:47.597Z,16.37
2017-03-22T07:57:57.931Z,16.39
2017-03-22T07:59:08.292Z,16.37
2017-03-22T08:00:18.640Z,16.37
2017-03-22T08:01:28.701Z,16.48
2017-03-22T08:02:39.078Z,16.39
2017-03-22T08:03:49.424Z,16.42
2017-03-22T08:04:59.759Z,16.27
2017-03-22T08:06:09.486Z,16.16
2017-03-22T08:07:19.815Z,16.08
2017-03-22T08:08:30.162Z,16.02
2017-03-22T08:09:40.533Z,16.07
2017-03-22T08:10:50.863Z,16.06
2017-03-22T08:12:01.237Z,15.95
2017-03-22T08:13:11.584Z,15.99
2017-03-22T08:14:21.936Z,15.91
2017-03-22T08:15:32.293Z,15.88
2017-03-22T08:16:42.333Z,15.86
2017-03-22T08:17:52.687Z,15.78
2017-03-22T08:19:02.742Z,15.81
2017-03-22T08:20:12.783Z,15.77
2017-03-22T08:21:22.820Z,15.86
2017-03-22T08:22:33.172Z,15.89
2017-03-22T08:23:43.227Z,15.99
2017-03-22T08:24:53.595Z,15.95
2017-03-22T08:26:03.619Z,16.04
2017-03-22T08:27:13.679Z,15.89
2017-03-22T08:28:24.034Z,15.96
2017-03-22T08:29:34.388Z,15.96
2017-03-22T08:30:44.718Z,15.89
2017-03-22T08:31:54.755Z,15.89
2017-03-22T08:33:04.789Z,15.88
2017-03-22T08:34:14.814Z,15.8
2017-03-22T08:35:24.839Z,15.83
2017-03-22T08:36:34.867Z,15.77
2017-03-22T08:37:45.208Z,15.77
2017-03-22T08:38:55.251Z,15.71
2017-03-22T08:40:05.277Z,15.67
2017-03-22T08:41:15.629Z,15.62
2017-03-22T08:42:25.993Z,15.56
2017-03-22T08:43:36.364Z,15.53
2017-03-22T08:44:46.399Z,15.52
2017-03-22T08:45:56.136Z,15.62
2017-03-22T08:47:06.490Z,15.67
2017-03-22T08:48:16.208Z,15.7
2017-03-22T08:49:26.241Z,15.74
2017-03-22T08:50:36.268Z,15.84
2017-03-22T08:51:46.295Z,15.81
2017-03-22T08:52:56.641Z,15.91
2017-03-22T08:54:06.993Z,15.86
2017-03-22T08:55:17.340Z,15.95
2017-03-22T08:56:27.390Z,16
2017-03-22T08:57:37.421Z,15.91
2017-03-22T08:58:47.764Z,15.93
2017-03-22T08:59:58.106Z,15.88
2017-03-22T09:01:08.470Z,15.89
2017-03-22T09:02:18.841Z,15.84
2017-03-22T09:03:29.191Z,15.84
2017-03-22T09:04:39.562Z,15.78
2017-03-22T09:05:49.918Z,15.67
2017-03-22T09:07:00.267Z,15.56
2017-03-22T09:08:10.300Z,15.55
2017-03-22T09:09:20.320Z,15.55
2017-03-22T09:10:30.677Z,15.45
2017-03-22T09:11:41.020Z,15.49
2017-03-22T09:12:51.361Z,15.49
2017-03-22T09:14:01.701Z,15.47
2017-03-22T09:15:12.038Z,15.31
2017-03-22T09:16:22.374Z,15.26
2017-03-22T09:17:32.761Z,15.27
2017-03-22T09:18:42.803Z,15.34
2017-03-22T09:19:52.832Z,15.33
2017-03-22T09:21:03.174Z,15.37
2017-03-22T09:22:13.530Z,15.18
2017-03-22T09:23:23.884Z,15.18
2017-03-22T09:24:34.247Z,15.22
2017-03-22T09:25:44.628Z,15.15
2017-03-22T09:26:54.964Z,15.25
2017-03-22T09:28:05.331Z,15.26
2017-03-22T09:29:15.701Z,15.25
2017-03-22T09:30:26.067Z,15.19
2017-03-22T09:31:35.797Z,15.15
2017-03-22T09:32:46.137Z,15.08
2017-03-22T09:33:55.863Z,15.1
2017-03-22T09:35:06.220Z,15.22
2017-03-22T09:36:16.262Z,15.25
2017-03-22T09:37:26.627Z,15.27
2017-03-22T09:38:36.367Z,15.34
2017-03-22T09:39:46.394Z,15.34
2017-03-22T09:40:56.428Z,15.33
2017-03-22T09:42:06.765Z,15.49
2017-03-22T09:43:16.785Z,15.49
2017-03-22T09:44:27.137Z,15.55
2017-03-22T09:45:37.172Z,15.47
2017-03-22T09:46:47.558Z,15.47
2017-03-22T09:47:57.920Z,15.47
2017-03-22T09:49:08.275Z,15.51
2017-03-22T09:50:18.295Z,15.59
2017-03-22T09:51:28.638Z,15.55
2017-03-22T09:52:38.984Z,15.6
2017-03-22T09:53:49.259Z,15.62
2017-03-22T09:54:59.593Z,15.62
2017-03-22T09:56:09.949Z,15.67
2017-03-22T09:57:19.999Z,15.7
2017-03-22T09:58:30.017Z,15.63
2017-03-22T09:59:40.379Z,15.78
2017-03-22T10:00:50.727Z,15.75
2017-03-22T10:02:01.063Z,15.71
2017-03-22T10:03:11.406Z,15.8
2017-03-22T10:04:21.446Z,15.84
2017-03-22T10:05:31.792Z,15.74
2017-03-22T10:06:41.824Z,15.67
2017-03-22T10:07:51.865Z,15.6
2017-03-22T10:09:02.223Z,15.45
2017-03-22T10:10:11.932Z,15.35
2017-03-22T10:11:22.282Z,15.3
2017-03-22T10:12:32.653Z,15.26
2017-03-22T10:13:42.675Z,15.16
2017-03-22T10:14:52.689Z,15.23
2017-03-22T10:16:02.730Z,15.27
2017-03-22T10:17:13.070Z,15.44
2017-03-22T10:18:23.096Z,15.67
2017-03-22T10:19:33.446Z,15.84
2017-03-22T10:20:43.806Z,15.95
2017-03-22T10:21:54.132Z,15.99
2017-03-22T10:23:04.183Z,16.04
2017-03-22T10:24:14.627Z,15.98
2017-03-22T10:25:24.994Z,16.06
2017-03-22T10:26:35.328Z,16
2017-03-22T10:27:45.722Z,16.13
2017-03-22T10:28:56.077Z,16.25
2017-03-22T10:30:06.415Z,16.37
2017-03-22T10:31:16.768Z,16.4
2017-03-22T10:32:27.113Z,16.3
2017-03-22T10:33:37.139Z,16.33
2017-03-22T10:34:47.156Z,16.34
2017-03-22T10:35:57.497Z,16.29
2017-03-22T10:37:07.820Z,16.17
2017-03-22T10:38:17.842Z,16.1
2017-03-22T10:39:27.561Z,16.11
2017-03-22T10:40:37.584Z,15.93
2017-03-22T10:41:47.621Z,16
2017-03-22T10:42:57.652Z,15.95
2017-03-22T10:44:07.994Z,15.8
2017-03-22T10:45:18.010Z,15.8
2017-03-22T10:46:28.364Z,15.7
2017-03-22T10:47:38.384Z,15.74
2017-03-22T10:48:48.724Z,15.71
2017-03-22T10:49:59.039Z,15.68
2017-03-22T10:51:09.075Z,15.7
2017-03-22T10:52:19.401Z,15.67
2017-03-22T10:53:29.738Z,15.65
2017-03-22T10:54:40.074Z,15.62
2017-03-22T10:55:50.106Z,15.6
2017-03-22T10:57:00.459Z,15.52
2017-03-22T10:58:10.495Z,15.51
2017-03-22T10:59:20.813Z,15.4
2017-03-22T11:00:31.150Z,15.35
2017-03-22T11:01:41.176Z,15.35
2017-03-22T11:02:51.551Z,15.34
2017-03-22T11:04:01.900Z,15.37
2017-03-22T11:05:11.935Z,15.3
2017-03-22T11:06:22.307Z,15.25
2017-03-22T11:07:32.650Z,15.27
2017-03-22T11:08:42.991Z,15.31
2017-03-22T11:09:53.025Z,15.31
2017-03-22T11:11:03.358Z,15.19
2017-03-22T11:12:13.701Z,15.15
2017-03-22T11:13:24.037Z,15.16
2017-03-22T11:14:34.060Z,15.22
2017-03-22T11:15:44.408Z,15.15
2017-03-22T11:16:55.013Z,15.19
2017-03-22T11:18:05.350Z,15.18
2017-03-22T11:19:15.371Z,15.26
2017-03-22T11:20:25.091Z,15.27
2017-03-22T11:21:35.439Z,15.22
2017-03-22T11:22:45.795Z,15.19
2017-03-22T11:23:55.843Z,15.23
2017-03-22T11:25:05.881Z,15.2
2017-03-22T11:26:15.912Z,15.26
2017-03-22T11:27:26.266Z,15.15
2017-03-22T11:28:36.596Z,15.25
2017-03-22T11:29:46.927Z,15.26
2017-03-22T11:30:56.654Z,15.25
2017-03-22T11:32:06.660Z,15.19
2017-03-22T11:33:16.682Z,15.12
2017-03-22T11:34:26.732Z,15.1
2017-03-22T11:35:37.090Z,15.16
2017-03-22T11:36:46.825Z,15.27
2017-03-22T11:37:56.528Z,15.34
2017-03-22T11:39:06.550Z,15.55
2017-03-22T11:40:16.566Z,15.6
2017-03-22T11:41:26.913Z,15.75
2017-03-22T11:42:36.940Z,15.75
2017-03-22T11:43:47.295Z,15.93
2017-03-22T11:44:57.643Z,15.92
2017-03-22T11:46:07.680Z,15.91
2017-03-22T11:47:17.703Z,15.84
2017-03-22T11:48:27.751Z,15.86
2017-03-22T11:49:38.087Z,15.77
2017-03-22T11:50:48.426Z,15.63
2017-03-22T11:51:58.145Z,15.62
2017-03-22T11:53:08.506Z,15.68
2017-03-22T11:54:18.844Z,15.92
2017-03-22T11:55:29.207Z,16.13
2017-03-22T11:56:39.546Z,16.07
2017-03-22T11:57:49.906Z,15.86
2017-03-22T11:59:00.259Z,15.83
2017-03-22T12:00:10.596Z,15.67
2017-03-22T12:01:20.953Z,15.58
2017-03-22T12:02:31.295Z,15.47
2017-03-22T12:03:41.324Z,15.37
2017-03-22T12:04:51.657Z,15.35
2017-03-22T12:06:02.010Z,15.22
2017-03-22T12:07:12.340Z,15.16
2017-03-22T12:08:22.354Z,15.07
2017-03-22T12:09:32.375Z,15
2017-03-22T12:10:42.819Z,14.89
2017-03-22T12:11:53.166Z,14.87
2017-03-22T12:13:03.488Z,14.94
2017-03-22T12:14:13.827Z,14.98
2017-03-22T12:15:24.162Z,15
2017-03-22T12:16:33.876Z,15.01
2017-03-22T12:17:43.889Z,15.04
2017-03-22T12:18:54.277Z,15.01
2017-03-22T12:20:04.705Z,14.89
2017-03-22T12:21:15.069Z,14.89
2017-03-22T12:22:25.083Z,14.9
2017-03-22T12:23:35.103Z,14.77
2017-03-22T12:24:45.453Z,14.71
2017-03-22T12:25:55.474Z,14.66
2017-03-22T12:27:05.543Z,14.6
2017-03-22T12:28:15.883Z,14.67
2017-03-22T12:29:26.227Z,14.7
2017-03-22T12:30:36.576Z,14.77
2017-03-22T12:31:46.601Z,14.87
2017-03-22T12:32:56.949Z,14.93
2017-03-22T12:34:07.281Z,15.04
2017-03-22T12:35:17.623Z,15.15
2017-03-22T12:36:27.962Z,15.22
2017-03-22T12:37:38.012Z,15.37
2017-03-22T12:38:48.354Z,15.34
2017-03-22T12:39:58.710Z,15.31
2017-03-22T12:41:08.801Z,15.38
2017-03-22T12:42:19.133Z,15.49
2017-03-22T12:43:29.482Z,15.73
2017-03-22T12:44:39.836Z,16
2017-03-22T12:45:50.182Z,16.37
2017-03-22T12:47:00.206Z,16.58
2017-03-22T12:48:10.554Z,16.74
2017-03-22T12:49:20.893Z,16.63
2017-03-22T12:50:31.221Z,16.44
2017-03-22T12:51:41.249Z,16.45
2017-03-22T12:52:51.594Z,16.22
2017-03-22T12:54:01.941Z,15.95
2017-03-22T12:55:12.276Z,15.84
2017-03-22T12:56:22.627Z,15.59
2017-03-22T12:57:32.652Z,15.45
2017-03-22T12:58:42.358Z,15.3
2017-03-22T12:59:52.446Z,15.18
2017-03-22T13:01:02.789Z,14.85
2017-03-22T13:02:13.152Z,14.9
2017-03-22T13:03:23.517Z,14.74
2017-03-22T13:04:33.856Z,14.7
2017-03-22T13:05:44.219Z,14.63
2017-03-22T13:06:54.248Z,14.56
2017-03-22T13:08:03.969Z,14.48
2017-03-22T13:09:14.325Z,14.52
2017-03-22T13:10:24.345Z,14.51
2017-03-22T13:11:34.086Z,14.42
2017-03-22T13:12:44.486Z,14.46
2017-03-22T13:13:54.827Z,14.44
2017-03-22T13:15:04.871Z,14.52
2017-03-22T13:16:15.215Z,14.45
2017-03-22T13:17:25.265Z,14.42
2017-03-22T13:18:35.284Z,14.41
2017-03-22T13:19:45.647Z,14.28
2017-03-22T13:20:55.673Z,14.3
2017-03-22T13:22:05.736Z,14.2
2017-03-22T13:23:16.087Z,14.24
2017-03-22T13:24:25.823Z,14.2
2017-03-22T13:25:36.192Z,14.19
2017-03-22T13:26:46.208Z,14.19
2017-03-22T13:27:56.238Z,14.24
2017-03-22T13:29:06.266Z,14.23
2017-03-22T13:30:16.611Z,14.21
2017-03-22T13:31:26.965Z,14.12
2017-03-22T13:32:37.308Z,14.15
2017-03-22T13:33:47.680Z,14.19
2017-03-22T13:34:57.996Z,14.2
2017-03-22T13:36:08.369Z,14.2
2017-03-22T13:37:18.772Z,14.2
2017-03-22T13:38:29.104Z,14.21
2017-03-22T13:39:38.833Z,14.21
2017-03-22T13:40:49.184Z,14.15
2017-03-22T13:41:59.529Z,14.15
2017-03-22T13:43:09.556Z,14.03
2017-03-22T13:44:19.585Z,14.09
2017-03-22T13:45:29.938Z,14.13
2017-03-22T13:46:40.312Z,14.21
2017-03-22T13:47:50.691Z,14.15
2017-03-22T13:49:00.725Z,14.2
2017-03-22T13:50:10.744Z,14.3
2017-03-22T13:51:21.094Z,14.24
2017-03-22T13:52:31.436Z,14.34
2017-03-22T13:53:41.786Z,14.41
2017-03-22T13:54:52.135Z,14.39
2017-03-22T13:56:02.469Z,14.42
2017-03-22T13:57:12.507Z,14.41
2017-03-22T13:58:22.853Z,14.41
2017-03-22T13:59:33.229Z,14.27
2017-03-22T14:00:43.814Z,14.27
2017-03-22T14:01:54.215Z,14.21
2017-03-22T14:03:04.239Z,14.21
2017-03-22T14:04:13.963Z,14.19
2017-03-22T14:05:24.298Z,14.19
2017-03-22T14:06:34.331Z,14.28
2017-03-22T14:07:44.057Z,14.34
2017-03-22T14:08:54.083Z,14.38
2017-03-22T14:10:04.430Z,14.45
2017-03-22T14:11:14.137Z,14.53
2017-03-22T14:12:24.184Z,14.49
2017-03-22T14:13:33.911Z,14.44
2017-03-22T14:14:43.948Z,14.45
2017-03-22T14:15:53.975Z,14.49
2017-03-22T14:17:04.325Z,14.49
2017-03-22T14:18:14.359Z,14.57
2017-03-22T14:19:24.398Z,14.42
2017-03-22T14:20:34.736Z,14.44
2017-03-22T14:21:45.089Z,14.28
2017-03-22T14:22:55.153Z,14.28
2017-03-22T14:24:05.189Z,14.21
2017-03-22T14:25:15.551Z,14.2
2017-03-22T14:26:25.278Z,14.19
2017-03-22T14:27:34.986Z,14.2
2017-03-22T14:28:45.333Z,14.19
2017-03-22T14:29:55.077Z,14.19
2017-03-22T14:31:05.462Z,14.15
2017-03-22T14:32:15.794Z,14.27
2017-03-22T14:33:26.149Z,14.33
2017-03-22T14:34:36.495Z,14.27
2017-03-22T14:35:46.841Z,14.41
2017-03-22T14:36:56.850Z,14.53
2017-03-22T14:38:07.193Z,14.51
2017-03-22T14:39:17.563Z,14.53
2017-03-22T14:40:26.995Z,14.56
2017-03-22T14:41:37.028Z,14.61
2017-03-22T14:42:47.363Z,14.6
2017-03-22T14:43:57.741Z,14.71
2017-03-22T14:45:08.084Z,14.95
2017-03-22T14:46:18.111Z,15.01
2017-03-22T14:47:28.143Z,15.1
2017-03-22T14:48:38.482Z,15.1
2017-03-22T14:49:48.518Z,15.15
2017-03-22T14:50:58.914Z,15.15
2017-03-22T14:52:09.255Z,15.18
2017-03-22T14:53:19.584Z,15.13
2017-03-22T14:54:29.959Z,15.07
2017-03-22T14:55:40.310Z,15.16
2017-03-22T14:56:50.652Z,15.07
2017-03-22T14:58:01.019Z,15.04
2017-03-22T14:59:11.342Z,15.01
2017-03-22T15:00:21.688Z,14.87
2017-03-22T15:01:31.737Z,14.79
2017-03-22T15:02:42.151Z,14.67
2017-03-22T15:03:52.502Z,14.67
2017-03-22T15:05:02.543Z,14.66
2017-03-22T15:06:12.879Z,14.67
2017-03-22T15:07:23.245Z,14.7
2017-03-22T15:08:33.369Z,14.74
2017-03-22T15:09:43.722Z,14.69
2017-03-22T15:10:53.763Z,14.67
2017-03-22T15:12:04.121Z,14.66
2017-03-22T15:13:14.160Z,14.6
2017-03-22T15:14:24.748Z,14.6
2017-03-22T15:15:35.094Z,14.66
2017-03-22T15:16:45.438Z,14.56
2017-03-22T15:17:55.810Z,14.57
2017-03-22T15:19:06.152Z,14.49
2017-03-22T15:20:16.563Z,14.49
2017-03-22T15:21:26.606Z,14.53
2017-03-22T15:22:36.965Z,14.42
2017-03-22T15:23:47.319Z,14.36
2017-03-22T15:24:57.659Z,14.27
2017-03-22T15:26:07.999Z,14.24
2017-03-22T15:27:18.340Z,14.24
2017-03-22T15:28:28.677Z,14.2
2017-03-22T15:29:38.395Z,14.23
2017-03-22T15:30:48.753Z,14.2
2017-03-22T15:31:59.096Z,14.13
2017-03-22T15:33:09.478Z,14.12
2017-03-22T15:34:19.838Z,14.03
2017-03-22T15:35:29.926Z,13.97
2017-03-22T15:36:40.301Z,14.09
2017-03-22T15:37:50.639Z,13.94
2017-03-22T15:39:00.675Z,13.84